Terminal Aerodrome Forecast
Issued by NWS

Home | Current Version | Previous Version | Text Only | Print | Product List | Glossary On
Versions: 1 2 3 4 5 6 7 8 9 10 11 12 13 14 15
710
FTUS44 KLIX 272320
TAFMCB
TAF
KMCB 272320Z 2800/2824 08004KT P6SM BKN250 PROB30 2818/2821 4SM
      -TSRA OVC025CB
     FM282100 15009KT P6SM OVC045 PROB30 2821/2824 4SM -TSRA
      OVC025CB=

USA.gov is the U.S. government's official web portal to all federal, state and local government web resources and services.